sensor_id;sensor_type;location;lat;lon;timestamp;P1;durP1;ratioP1;P2;durP2;ratioP2
35961;SDS011;22044;48.298;10.008;2024-02-14T00:01:52;6.03;;;3.50;;
35961;SDS011;22044;48.298;10.008;2024-02-14T00:05:03;4.97;;;3.93;;
35961;SDS011;22044;48.298;10.008;2024-02-14T00:07:49;5.90;;;4.20;;
35961;SDS011;22044;48.298;10.008;2024-02-14T00:10:35;5.67;;;4.00;;
35961;SDS011;22044;48.298;10.008;2024-02-14T00:13:20;8.27;;;4.17;;
35961;SDS011;22044;48.298;10.008;2024-02-14T00:16:13;5.87;;;3.63;;
35961;SDS011;22044;48.298;10.008;2024-02-14T00:18:58;5.87;;;4.10;;
35961;SDS011;22044;48.298;10.008;2024-02-14T00:21:46;6.00;;;4.13;;
35961;SDS011;22044;48.298;10.008;2024-02-14T00:24:32;6.57;;;4.03;;
35961;SDS011;22044;48.298;10.008;2024-02-14T00:27:21;6.47;;;3.90;;
35961;SDS011;22044;48.298;10.008;2024-02-14T00:30:09;7.00;;;4.70;;
35961;SDS011;22044;48.298;10.008;2024-02-14T00:32:56;5.73;;;3.93;;
35961;SDS011;22044;48.298;10.008;2024-02-14T00:35:42;9.50;;;4.80;;
35961;SDS011;22044;48.298;10.008;2024-02-14T00:38:28;8.70;;;4.97;;
35961;SDS011;22044;48.298;10.008;2024-02-14T00:41:39;7.17;;;4.67;;
35961;SDS011;22044;48.298;10.008;2024-02-14T00:44:25;8.10;;;4.63;;
35961;SDS011;22044;48.298;10.008;2024-02-14T00:47:36;8.03;;;4.70;;
35961;SDS011;22044;48.298;10.008;2024-02-14T00:50:23;8.07;;;5.00;;
35961;SDS011;22044;48.298;10.008;2024-02-14T00:53:34;6.00;;;4.20;;
35961;SDS011;22044;48.298;10.008;2024-02-14T00:56:20;4.73;;;4.00;;
35961;SDS011;22044;48.298;10.008;2024-02-14T00:59:07;4.97;;;4.17;;
35961;SDS011;22044;48.298;10.008;2024-02-14T01:01:53;7.90;;;4.27;;
35961;SDS011;22044;48.298;10.008;2024-02-14T01:04:39;5.77;;;4.03;;
35961;SDS011;22044;48.298;10.008;2024-02-14T01:07:26;6.03;;;5.00;;
35961;SDS011;22044;48.298;10.008;2024-02-14T01:10:12;7.97;;;4.43;;
35961;SDS011;22044;48.298;10.008;2024-02-14T01:12:58;6.20;;;4.50;;
35961;SDS011;22044;48.298;10.008;2024-02-14T01:16:09;9.87;;;4.97;;
35961;SDS011;22044;48.298;10.008;2024-02-14T01:19:20;5.57;;;4.53;;
35961;SDS011;22044;48.298;10.008;2024-02-14T01:22:08;8.00;;;4.90;;
35961;SDS011;22044;48.298;10.008;2024-02-14T01:24:56;6.87;;;4.50;;
35961;SDS011;22044;48.298;10.008;2024-02-14T01:27:42;8.40;;;5.27;;
35961;SDS011;22044;48.298;10.008;2024-02-14T01:30:28;7.37;;;5.10;;
35961;SDS011;22044;48.298;10.008;2024-02-14T01:33:14;7.13;;;4.43;;
35961;SDS011;22044;48.298;10.008;2024-02-14T01:36:00;7.03;;;4.47;;
35961;SDS011;22044;48.298;10.008;2024-02-14T01:38:46;9.53;;;5.00;;
35961;SDS011;22044;48.298;10.008;2024-02-14T01:41:35;8.73;;;4.63;;
35961;SDS011;22044;48.298;10.008;2024-02-14T01:44:21;9.83;;;5.30;;
35961;SDS011;22044;48.298;10.008;2024-02-14T01:47:34;5.70;;;4.50;;
35961;SDS011;22044;48.298;10.008;2024-02-14T01:50:20;9.10;;;5.17;;
35961;SDS011;22044;48.298;10.008;2024-02-14T01:53:16;6.90;;;4.57;;
35961;SDS011;22044;48.298;10.008;2024-02-14T01:56:02;7.50;;;5.13;;
35961;SDS011;22044;48.298;10.008;2024-02-14T01:59:15;7.17;;;5.27;;
35961;SDS011;22044;48.298;10.008;2024-02-14T02:02:02;5.90;;;4.13;;
35961;SDS011;22044;48.298;10.008;2024-02-14T02:04:50;6.07;;;4.63;;
35961;SDS011;22044;48.298;10.008;2024-02-14T02:07:36;5.73;;;4.47;;
35961;SDS011;22044;48.298;10.008;2024-02-14T02:10:24;6.60;;;4.60;;
35961;SDS011;22044;48.298;10.008;2024-02-14T02:13:11;8.63;;;5.20;;
35961;SDS011;22044;48.298;10.008;2024-02-14T02:15:59;10.10;;;5.40;;
35961;SDS011;22044;48.298;10.008;2024-02-14T02:18:49;7.03;;;5.73;;
35961;SDS011;22044;48.298;10.008;2024-02-14T02:21:59;8.80;;;5.70;;
35961;SDS011;22044;48.298;10.008;2024-02-14T02:24:47;10.93;;;6.80;;
35961;SDS011;22044;48.298;10.008;2024-02-14T02:27:34;10.83;;;6.23;;
35961;SDS011;22044;48.298;10.008;2024-02-14T02:30:21;9.93;;;6.20;;
35961;SDS011;22044;48.298;10.008;2024-02-14T02:33:07;7.13;;;5.93;;
35961;SDS011;22044;48.298;10.008;2024-02-14T02:35:53;8.00;;;5.63;;
35961;SDS011;22044;48.298;10.008;2024-02-14T02:38:39;8.13;;;5.37;;
35961;SDS011;22044;48.298;10.008;2024-02-14T02:41:26;8.73;;;6.27;;
35961;SDS011;22044;48.298;10.008;2024-02-14T02:44:12;10.17;;;5.70;;
35961;SDS011;22044;48.298;10.008;2024-02-14T02:46:57;11.30;;;6.40;;
35961;SDS011;22044;48.298;10.008;2024-02-14T02:49:45;8.30;;;5.47;;
35961;SDS011;22044;48.298;10.008;2024-02-14T02:52:30;10.40;;;5.80;;
35961;SDS011;22044;48.298;10.008;2024-02-14T02:55:16;6.50;;;5.10;;
35961;SDS011;22044;48.298;10.008;2024-02-14T02:58:03;11.33;;;5.83;;
35961;SDS011;22044;48.298;10.008;2024-02-14T03:01:15;7.57;;;5.37;;
35961;SDS011;22044;48.298;10.008;2024-02-14T03:04:01;7.27;;;5.00;;
35961;SDS011;22044;48.298;10.008;2024-02-14T03:07:12;7.90;;;5.47;;
35961;SDS011;22044;48.298;10.008;2024-02-14T03:10:04;8.03;;;5.37;;
35961;SDS011;22044;48.298;10.008;2024-02-14T03:12:50;8.17;;;5.73;;
35961;SDS011;22044;48.298;10.008;2024-02-14T03:15:37;7.93;;;5.37;;
35961;SDS011;22044;48.298;10.008;2024-02-14T03:18:23;9.60;;;5.70;;
35961;SDS011;22044;48.298;10.008;2024-02-14T03:21:10;7.77;;;5.30;;
35961;SDS011;22044;48.298;10.008;2024-02-14T03:24:03;10.80;;;5.40;;
35961;SDS011;22044;48.298;10.008;2024-02-14T03:26:49;10.10;;;5.47;;
35961;SDS011;22044;48.298;10.008;2024-02-14T03:29:37;6.97;;;5.10;;
35961;SDS011;22044;48.298;10.008;2024-02-14T03:32:25;12.37;;;6.30;;
35961;SDS011;22044;48.298;10.008;2024-02-14T03:35:10;7.40;;;4.97;;
35961;SDS011;22044;48.298;10.008;2024-02-14T03:37:57;9.60;;;5.37;;
35961;SDS011;22044;48.298;10.008;2024-02-14T03:40:45;6.90;;;5.10;;
35961;SDS011;22044;48.298;10.008;2024-02-14T03:43:56;7.40;;;4.70;;
35961;SDS011;22044;48.298;10.008;2024-02-14T03:46:44;6.77;;;5.27;;
35961;SDS011;22044;48.298;10.008;2024-02-14T03:49:33;9.13;;;5.47;;
35961;SDS011;22044;48.298;10.008;2024-02-14T03:52:43;8.67;;;5.20;;
35961;SDS011;22044;48.298;10.008;2024-02-14T03:55:29;9.00;;;4.73;;
35961;SDS011;22044;48.298;10.008;2024-02-14T03:58:15;8.83;;;5.10;;
35961;SDS011;22044;48.298;10.008;2024-02-14T04:01:31;7.67;;;4.73;;
35961;SDS011;22044;48.298;10.008;2024-02-14T04:04:17;6.83;;;4.43;;
35961;SDS011;22044;48.298;10.008;2024-02-14T04:07:04;7.67;;;5.00;;
35961;SDS011;22044;48.298;10.008;2024-02-14T04:09:52;9.00;;;5.20;;
35961;SDS011;22044;48.298;10.008;2024-02-14T04:12:38;11.33;;;6.00;;
35961;SDS011;22044;48.298;10.008;2024-02-14T04:15:24;9.40;;;5.00;;
35961;SDS011;22044;48.298;10.008;2024-02-14T04:18:35;8.57;;;5.67;;
35961;SDS011;22044;48.298;10.008;2024-02-14T04:21:46;10.27;;;5.00;;
35961;SDS011;22044;48.298;10.008;2024-02-14T04:24:58;6.77;;;5.23;;
35961;SDS011;22044;48.298;10.008;2024-02-14T04:27:44;9.70;;;5.43;;
35961;SDS011;22044;48.298;10.008;2024-02-14T04:30:30;9.20;;;5.13;;
35961;SDS011;22044;48.298;10.008;2024-02-14T04:33:15;6.17;;;4.70;;
35961;SDS011;22044;48.298;10.008;2024-02-14T04:36:05;10.67;;;5.30;;
35961;SDS011;22044;48.298;10.008;2024-02-14T04:38:51;7.23;;;5.00;;
35961;SDS011;22044;48.298;10.008;2024-02-14T04:41:41;8.93;;;4.90;;
35961;SDS011;22044;48.298;10.008;2024-02-14T04:44:27;12.03;;;5.40;;
35961;SDS011;22044;48.298;10.008;2024-02-14T04:47:38;6.83;;;5.60;;
35961;SDS011;22044;48.298;10.008;2024-02-14T04:50:27;7.53;;;5.47;;
35961;SDS011;22044;48.298;10.008;2024-02-14T04:53:40;8.33;;;6.07;;
35961;SDS011;22044;48.298;10.008;2024-02-14T04:56:26;8.27;;;5.93;;
35961;SDS011;22044;48.298;10.008;2024-02-14T04:59:18;6.77;;;5.13;;
35961;SDS011;22044;48.298;10.008;2024-02-14T05:02:10;8.93;;;6.97;;
35961;SDS011;22044;48.298;10.008;2024-02-14T05:04:56;12.13;;;7.93;;
35961;SDS011;22044;48.298;10.008;2024-02-14T05:07:42;9.97;;;5.50;;
35961;SDS011;22044;48.298;10.008;2024-02-14T05:10:28;8.47;;;5.93;;
35961;SDS011;22044;48.298;10.008;2024-02-14T05:13:16;7.50;;;5.37;;
35961;SDS011;22044;48.298;10.008;2024-02-14T05:16:04;11.20;;;6.50;;
35961;SDS011;22044;48.298;10.008;2024-02-14T05:18:50;5.87;;;5.03;;
35961;SDS011;22044;48.298;10.008;2024-02-14T05:21:36;8.80;;;4.63;;
35961;SDS011;22044;48.298;10.008;2024-02-14T05:24:22;6.40;;;4.60;;
35961;SDS011;22044;48.298;10.008;2024-02-14T05:27:11;7.00;;;5.17;;
35961;SDS011;22044;48.298;10.008;2024-02-14T05:29:56;7.17;;;4.90;;
35961;SDS011;22044;48.298;10.008;2024-02-14T05:32:43;5.67;;;5.07;;
35961;SDS011;22044;48.298;10.008;2024-02-14T05:35:29;6.40;;;4.33;;
35961;SDS011;22044;48.298;10.008;2024-02-14T05:38:14;6.70;;;5.10;;
35961;SDS011;22044;48.298;10.008;2024-02-14T05:41:03;7.70;;;4.70;;
35961;SDS011;22044;48.298;10.008;2024-02-14T05:43:51;7.00;;;4.77;;
35961;SDS011;22044;48.298;10.008;2024-02-14T05:46:37;6.77;;;4.97;;
35961;SDS011;22044;48.298;10.008;2024-02-14T05:49:24;6.30;;;4.70;;
35961;SDS011;22044;48.298;10.008;2024-02-14T05:52:10;8.93;;;4.60;;
35961;SDS011;22044;48.298;10.008;2024-02-14T05:54:55;9.17;;;5.40;;
35961;SDS011;22044;48.298;10.008;2024-02-14T05:57:41;7.07;;;4.93;;
35961;SDS011;22044;48.298;10.008;2024-02-14T06:00:27;7.47;;;4.80;;
35961;SDS011;22044;48.298;10.008;2024-02-14T06:03:38;5.67;;;4.90;;
35961;SDS011;22044;48.298;10.008;2024-02-14T06:06:53;6.23;;;5.07;;
35961;SDS011;22044;48.298;10.008;2024-02-14T06:09:39;7.03;;;5.00;;
35961;SDS011;22044;48.298;10.008;2024-02-14T06:12:49;6.90;;;5.17;;
35961;SDS011;22044;48.298;10.008;2024-02-14T06:15:35;6.43;;;5.37;;
35961;SDS011;22044;48.298;10.008;2024-02-14T06:18:21;6.17;;;5.13;;
35961;SDS011;22044;48.298;10.008;2024-02-14T06:21:06;6.40;;;4.67;;
35961;SDS011;22044;48.298;10.008;2024-02-14T06:23:54;7.60;;;5.07;;
35961;SDS011;22044;48.298;10.008;2024-02-14T06:26:40;6.87;;;4.43;;
35961;SDS011;22044;48.298;10.008;2024-02-14T06:29:26;8.77;;;4.83;;
35961;SDS011;22044;48.298;10.008;2024-02-14T06:32:14;6.13;;;5.17;;
35961;SDS011;22044;48.298;10.008;2024-02-14T06:35:03;9.43;;;4.57;;
35961;SDS011;22044;48.298;10.008;2024-02-14T06:37:49;6.13;;;4.93;;
35961;SDS011;22044;48.298;10.008;2024-02-14T06:40:36;8.37;;;4.43;;
35961;SDS011;22044;48.298;10.008;2024-02-14T06:43:21;7.97;;;4.57;;
35961;SDS011;22044;48.298;10.008;2024-02-14T06:46:07;6.50;;;4.03;;
35961;SDS011;22044;48.298;10.008;2024-02-14T06:48:53;6.83;;;4.60;;
35961;SDS011;22044;48.298;10.008;2024-02-14T06:51:39;9.47;;;4.50;;
35961;SDS011;22044;48.298;10.008;2024-02-14T06:54:25;5.53;;;4.07;;
35961;SDS011;22044;48.298;10.008;2024-02-14T06:57:12;6.00;;;4.40;;
35961;SDS011;22044;48.298;10.008;2024-02-14T06:59:58;6.93;;;4.00;;
35961;SDS011;22044;48.298;10.008;2024-02-14T07:02:44;7.63;;;3.90;;
35961;SDS011;22044;48.298;10.008;2024-02-14T07:05:31;7.30;;;3.83;;
35961;SDS011;22044;48.298;10.008;2024-02-14T07:08:17;4.50;;;3.30;;
35961;SDS011;22044;48.298;10.008;2024-02-14T07:11:03;4.73;;;3.47;;
35961;SDS011;22044;48.298;10.008;2024-02-14T07:13:50;6.17;;;3.83;;
35961;SDS011;22044;48.298;10.008;2024-02-14T07:16:36;6.10;;;3.90;;
35961;SDS011;22044;48.298;10.008;2024-02-14T07:19:22;8.77;;;3.90;;
35961;SDS011;22044;48.298;10.008;2024-02-14T07:22:08;5.17;;;3.47;;
35961;SDS011;22044;48.298;10.008;2024-02-14T07:24:54;6.03;;;3.40;;
35961;SDS011;22044;48.298;10.008;2024-02-14T07:27:40;4.43;;;3.50;;
35961;SDS011;22044;48.298;10.008;2024-02-14T07:30:27;5.80;;;3.73;;
35961;SDS011;22044;48.298;10.008;2024-02-14T07:33:13;8.90;;;4.10;;
35961;SDS011;22044;48.298;10.008;2024-02-14T07:35:59;6.67;;;3.57;;
35961;SDS011;22044;48.298;10.008;2024-02-14T07:38:46;4.93;;;3.40;;
35961;SDS011;22044;48.298;10.008;2024-02-14T07:41:31;6.90;;;3.40;;
35961;SDS011;22044;48.298;10.008;2024-02-14T07:44:17;6.13;;;3.40;;
35961;SDS011;22044;48.298;10.008;2024-02-14T07:47:05;5.37;;;3.70;;
35961;SDS011;22044;48.298;10.008;2024-02-14T07:49:51;8.73;;;3.70;;
35961;SDS011;22044;48.298;10.008;2024-02-14T07:52:41;6.97;;;3.60;;
35961;SDS011;22044;48.298;10.008;2024-02-14T07:55:27;6.57;;;3.20;;
35961;SDS011;22044;48.298;10.008;2024-02-14T07:58:13;7.67;;;3.50;;
35961;SDS011;22044;48.298;10.008;2024-02-14T08:00:58;5.77;;;3.43;;
35961;SDS011;22044;48.298;10.008;2024-02-14T08:03:46;8.13;;;3.50;;
35961;SDS011;22044;48.298;10.008;2024-02-14T08:06:32;4.97;;;4.20;;
35961;SDS011;22044;48.298;10.008;2024-02-14T08:09:19;8.23;;;5.50;;
35961;SDS011;22044;48.298;10.008;2024-02-14T08:12:30;5.53;;;3.97;;
35961;SDS011;22044;48.298;10.008;2024-02-14T08:15:41;8.97;;;3.93;;
35961;SDS011;22044;48.298;10.008;2024-02-14T08:18:27;5.17;;;3.10;;
35961;SDS011;22044;48.298;10.008;2024-02-14T08:21:14;6.53;;;3.83;;
35961;SDS011;22044;48.298;10.008;2024-02-14T08:24:00;6.23;;;3.43;;
35961;SDS011;22044;48.298;10.008;2024-02-14T08:26:46;8.00;;;4.17;;
35961;SDS011;22044;48.298;10.008;2024-02-14T08:29:32;5.70;;;3.70;;
35961;SDS011;22044;48.298;10.008;2024-02-14T08:32:43;6.07;;;4.40;;
35961;SDS011;22044;48.298;10.008;2024-02-14T08:35:54;11.70;;;4.37;;
35961;SDS011;22044;48.298;10.008;2024-02-14T08:38:45;4.57;;;3.57;;
35961;SDS011;22044;48.298;10.008;2024-02-14T08:41:30;6.53;;;3.67;;
35961;SDS011;22044;48.298;10.008;2024-02-14T08:44:18;7.67;;;4.10;;
35961;SDS011;22044;48.298;10.008;2024-02-14T08:47:04;6.73;;;4.87;;
35961;SDS011;22044;48.298;10.008;2024-02-14T08:49:51;10.27;;;5.43;;
35961;SDS011;22044;48.298;10.008;2024-02-14T08:52:37;7.60;;;4.27;;
35961;SDS011;22044;48.298;10.008;2024-02-14T08:55:25;7.23;;;3.60;;
35961;SDS011;22044;48.298;10.008;2024-02-14T08:58:11;5.03;;;3.30;;
35961;SDS011;22044;48.298;10.008;2024-02-14T09:00:57;5.43;;;3.60;;
35961;SDS011;22044;48.298;10.008;2024-02-14T09:03:43;4.80;;;3.27;;
35961;SDS011;22044;48.298;10.008;2024-02-14T09:06:31;9.03;;;4.70;;
35961;SDS011;22044;48.298;10.008;2024-02-14T09:09:16;6.13;;;3.80;;
35961;SDS011;22044;48.298;10.008;2024-02-14T09:12:04;5.40;;;3.60;;
35961;SDS011;22044;48.298;10.008;2024-02-14T09:14:51;6.40;;;3.77;;
35961;SDS011;22044;48.298;10.008;2024-02-14T09:17:37;4.50;;;3.37;;
35961;SDS011;22044;48.298;10.008;2024-02-14T09:20:24;8.23;;;4.10;;
35961;SDS011;22044;48.298;10.008;2024-02-14T09:23:10;9.27;;;4.20;;
35961;SDS011;22044;48.298;10.008;2024-02-14T09:25:55;5.53;;;3.70;;
35961;SDS011;22044;48.298;10.008;2024-02-14T09:28:43;5.50;;;3.40;;
35961;SDS011;22044;48.298;10.008;2024-02-14T09:31:29;6.13;;;3.10;;
35961;SDS011;22044;48.298;10.008;2024-02-14T09:34:15;6.17;;;3.43;;
35961;SDS011;22044;48.298;10.008;2024-02-14T09:37:02;4.30;;;3.47;;
35961;SDS011;22044;48.298;10.008;2024-02-14T09:39:50;5.57;;;4.10;;
35961;SDS011;22044;48.298;10.008;2024-02-14T09:42:37;8.23;;;3.97;;
35961;SDS011;22044;48.298;10.008;2024-02-14T09:45:30;7.40;;;3.70;;
35961;SDS011;22044;48.298;10.008;2024-02-14T09:48:17;5.33;;;3.40;;
35961;SDS011;22044;48.298;10.008;2024-02-14T09:51:04;5.10;;;3.40;;
35961;SDS011;22044;48.298;10.008;2024-02-14T09:53:53;6.77;;;4.67;;
35961;SDS011;22044;48.298;10.008;2024-02-14T09:56:39;5.80;;;3.60;;
35961;SDS011;22044;48.298;10.008;2024-02-14T09:59:26;8.10;;;4.00;;
35961;SDS011;22044;48.298;10.008;2024-02-14T10:02:15;6.40;;;3.57;;
35961;SDS011;22044;48.298;10.008;2024-02-14T10:05:07;5.23;;;3.57;;
35961;SDS011;22044;48.298;10.008;2024-02-14T10:07:56;7.07;;;3.30;;
35961;SDS011;22044;48.298;10.008;2024-02-14T10:10:42;3.70;;;2.73;;
35961;SDS011;22044;48.298;10.008;2024-02-14T10:13:28;5.47;;;2.40;;
35961;SDS011;22044;48.298;10.008;2024-02-14T10:16:15;5.13;;;2.07;;
35961;SDS011;22044;48.298;10.008;2024-02-14T10:19:04;3.50;;;2.40;;
35961;SDS011;22044;48.298;10.008;2024-02-14T10:21:55;3.50;;;2.43;;
35961;SDS011;22044;48.298;10.008;2024-02-14T10:25:07;5.17;;;2.40;;
35961;SDS011;22044;48.298;10.008;2024-02-14T10:28:20;5.93;;;3.43;;
35961;SDS011;22044;48.298;10.008;2024-02-14T10:31:06;5.20;;;2.57;;
35961;SDS011;22044;48.298;10.008;2024-02-14T10:33:53;3.27;;;2.20;;
35961;SDS011;22044;48.298;10.008;2024-02-14T10:36:42;3.40;;;2.10;;
35961;SDS011;22044;48.298;10.008;2024-02-14T10:39:29;2.77;;;2.37;;
35961;SDS011;22044;48.298;10.008;2024-02-14T10:42:16;4.80;;;2.10;;
35961;SDS011;22044;48.298;10.008;2024-02-14T10:45:03;4.83;;;2.73;;
35961;SDS011;22044;48.298;10.008;2024-02-14T10:47:50;5.43;;;2.70;;
35961;SDS011;22044;48.298;10.008;2024-02-14T10:50:38;3.97;;;2.57;;
35961;SDS011;22044;48.298;10.008;2024-02-14T10:53:28;4.27;;;2.17;;
35961;SDS011;22044;48.298;10.008;2024-02-14T10:56:18;5.07;;;2.40;;
35961;SDS011;22044;48.298;10.008;2024-02-14T10:59:03;5.70;;;2.23;;
35961;SDS011;22044;48.298;10.008;2024-02-14T11:01:51;5.17;;;2.50;;
35961;SDS011;22044;48.298;10.008;2024-02-14T11:04:37;3.57;;;2.50;;
35961;SDS011;22044;48.298;10.008;2024-02-14T11:07:23;5.97;;;2.57;;
35961;SDS011;22044;48.298;10.008;2024-02-14T11:10:15;3.30;;;1.90;;
35961;SDS011;22044;48.298;10.008;2024-02-14T11:13:02;3.33;;;2.07;;
35961;SDS011;22044;48.298;10.008;2024-02-14T11:15:51;2.63;;;2.20;;
35961;SDS011;22044;48.298;10.008;2024-02-14T11:18:38;3.90;;;2.23;;
35961;SDS011;22044;48.298;10.008;2024-02-14T11:21:27;4.13;;;2.40;;
35961;SDS011;22044;48.298;10.008;2024-02-14T11:24:15;3.50;;;2.20;;
35961;SDS011;22044;48.298;10.008;2024-02-14T11:27:03;4.20;;;2.20;;
35961;SDS011;22044;48.298;10.008;2024-02-14T11:29:51;5.77;;;2.57;;
35961;SDS011;22044;48.298;10.008;2024-02-14T11:32:37;2.30;;;2.10;;
35961;SDS011;22044;48.298;10.008;2024-02-14T11:35:26;21.13;;;12.40;;
35961;SDS011;22044;48.298;10.008;2024-02-14T11:38:39;3.27;;;2.10;;
35961;SDS011;22044;48.298;10.008;2024-02-14T11:41:27;4.13;;;2.43;;
35961;SDS011;22044;48.298;10.008;2024-02-14T11:44:14;4.23;;;3.03;;
35961;SDS011;22044;48.298;10.008;2024-02-14T11:46:59;5.27;;;2.60;;
35961;SDS011;22044;48.298;10.008;2024-02-14T11:49:46;3.53;;;2.03;;
35961;SDS011;22044;48.298;10.008;2024-02-14T11:52:32;4.03;;;2.13;;
35961;SDS011;22044;48.298;10.008;2024-02-14T11:55:18;2.00;;;1.77;;
35961;SDS011;22044;48.298;10.008;2024-02-14T11:58:13;3.63;;;1.90;;
35961;SDS011;22044;48.298;10.008;2024-02-14T12:01:03;3.70;;;2.20;;
35961;SDS011;22044;48.298;10.008;2024-02-14T12:03:50;3.03;;;1.87;;
35961;SDS011;22044;48.298;10.008;2024-02-14T12:06:36;3.10;;;2.10;;
35961;SDS011;22044;48.298;10.008;2024-02-14T12:09:25;3.13;;;1.50;;
35961;SDS011;22044;48.298;10.008;2024-02-14T12:12:11;2.10;;;1.90;;
35961;SDS011;22044;48.298;10.008;2024-02-14T12:14:56;2.20;;;1.70;;
35961;SDS011;22044;48.298;10.008;2024-02-14T12:17:45;1.87;;;1.40;;
35961;SDS011;22044;48.298;10.008;2024-02-14T12:20:33;4.67;;;1.60;;
35961;SDS011;22044;48.298;10.008;2024-02-14T12:23:20;1.90;;;1.30;;
35961;SDS011;22044;48.298;10.008;2024-02-14T12:26:08;5.07;;;1.43;;
35961;SDS011;22044;48.298;10.008;2024-02-14T12:29:02;2.00;;;1.80;;
35961;SDS011;22044;48.298;10.008;2024-02-14T12:31:54;2.87;;;1.47;;
35961;SDS011;22044;48.298;10.008;2024-02-14T12:34:50;1.63;;;1.37;;
35961;SDS011;22044;48.298;10.008;2024-02-14T12:37:36;2.57;;;1.77;;
35961;SDS011;22044;48.298;10.008;2024-02-14T12:40:23;2.27;;;1.90;;
35961;SDS011;22044;48.298;10.008;2024-02-14T12:43:12;1.50;;;1.40;;
35961;SDS011;22044;48.298;10.008;2024-02-14T12:46:01;3.87;;;1.57;;
35961;SDS011;22044;48.298;10.008;2024-02-14T12:48:48;1.80;;;1.40;;
35961;SDS011;22044;48.298;10.008;2024-02-14T12:51:35;3.30;;;1.90;;
35961;SDS011;22044;48.298;10.008;2024-02-14T12:54:22;2.27;;;1.30;;
35961;SDS011;22044;48.298;10.008;2024-02-14T12:57:32;3.77;;;1.70;;
35961;SDS011;22044;48.298;10.008;2024-02-14T13:00:19;2.57;;;1.50;;
35961;SDS011;22044;48.298;10.008;2024-02-14T13:03:05;1.60;;;1.30;;
35961;SDS011;22044;48.298;10.008;2024-02-14T13:05:52;2.70;;;1.50;;
35961;SDS011;22044;48.298;10.008;2024-02-14T13:08:39;2.47;;;1.40;;
35961;SDS011;22044;48.298;10.008;2024-02-14T13:11:25;1.87;;;1.53;;
35961;SDS011;22044;48.298;10.008;2024-02-14T13:14:12;2.80;;;1.40;;
35961;SDS011;22044;48.298;10.008;2024-02-14T13:17:23;1.97;;;1.33;;
35961;SDS011;22044;48.298;10.008;2024-02-14T13:20:10;3.57;;;1.83;;
35961;SDS011;22044;48.298;10.008;2024-02-14T13:22:58;2.70;;;1.20;;
35961;SDS011;22044;48.298;10.008;2024-02-14T13:25:53;3.63;;;1.40;;
35961;SDS011;22044;48.298;10.008;2024-02-14T13:28:39;1.77;;;1.53;;
35961;SDS011;22044;48.298;10.008;2024-02-14T13:31:25;2.17;;;1.50;;
35961;SDS011;22044;48.298;10.008;2024-02-14T13:34:36;2.07;;;1.50;;
35961;SDS011;22044;48.298;10.008;2024-02-14T13:37:24;3.40;;;1.37;;
35961;SDS011;22044;48.298;10.008;2024-02-14T13:40:10;1.97;;;1.53;;
35961;SDS011;22044;48.298;10.008;2024-02-14T13:42:57;2.43;;;1.43;;
35961;SDS011;22044;48.298;10.008;2024-02-14T13:45:44;2.60;;;1.77;;
35961;SDS011;22044;48.298;10.008;2024-02-14T13:48:31;3.00;;;1.40;;
35961;SDS011;22044;48.298;10.008;2024-02-14T13:51:17;2.23;;;1.60;;
35961;SDS011;22044;48.298;10.008;2024-02-14T13:54:04;2.63;;;1.63;;
35961;SDS011;22044;48.298;10.008;2024-02-14T13:56:51;2.13;;;1.50;;
35961;SDS011;22044;48.298;10.008;2024-02-14T13:59:38;2.87;;;1.60;;
35961;SDS011;22044;48.298;10.008;2024-02-14T14:02:24;4.83;;;2.10;;
35961;SDS011;22044;48.298;10.008;2024-02-14T14:05:09;3.73;;;2.50;;
35961;SDS011;22044;48.298;10.008;2024-02-14T14:07:55;3.93;;;2.87;;
35961;SDS011;22044;48.298;10.008;2024-02-14T14:10:43;4.43;;;3.13;;
35961;SDS011;22044;48.298;10.008;2024-02-14T14:13:29;3.10;;;2.47;;
35961;SDS011;22044;48.298;10.008;2024-02-14T14:16:43;2.20;;;1.63;;
35961;SDS011;22044;48.298;10.008;2024-02-14T14:19:55;2.90;;;1.53;;
35961;SDS011;22044;48.298;10.008;2024-02-14T14:22:41;1.90;;;1.57;;
35961;SDS011;22044;48.298;10.008;2024-02-14T14:25:27;3.07;;;1.40;;
35961;SDS011;22044;48.298;10.008;2024-02-14T14:28:14;2.77;;;1.63;;
35961;SDS011;22044;48.298;10.008;2024-02-14T14:31:04;2.23;;;1.80;;
35961;SDS011;22044;48.298;10.008;2024-02-14T14:33:51;2.10;;;1.67;;
35961;SDS011;22044;48.298;10.008;2024-02-14T14:36:40;2.87;;;1.70;;
35961;SDS011;22044;48.298;10.008;2024-02-14T14:39:25;2.80;;;1.60;;
35961;SDS011;22044;48.298;10.008;2024-02-14T14:42:11;3.77;;;1.83;;
35961;SDS011;22044;48.298;10.008;2024-02-14T14:45:06;3.47;;;1.70;;
35961;SDS011;22044;48.298;10.008;2024-02-14T14:47:52;3.00;;;1.80;;
35961;SDS011;22044;48.298;10.008;2024-02-14T14:50:39;4.37;;;1.90;;
35961;SDS011;22044;48.298;10.008;2024-02-14T14:53:25;2.37;;;1.80;;
35961;SDS011;22044;48.298;10.008;2024-02-14T14:56:11;3.27;;;1.77;;
35961;SDS011;22044;48.298;10.008;2024-02-14T14:59:00;2.90;;;1.53;;
35961;SDS011;22044;48.298;10.008;2024-02-14T15:01:47;3.00;;;1.90;;
35961;SDS011;22044;48.298;10.008;2024-02-14T15:04:32;2.80;;;1.80;;
35961;SDS011;22044;48.298;10.008;2024-02-14T15:07:21;3.43;;;1.70;;
35961;SDS011;22044;48.298;10.008;2024-02-14T15:10:07;2.80;;;1.50;;
35961;SDS011;22044;48.298;10.008;2024-02-14T15:12:53;2.30;;;1.77;;
35961;SDS011;22044;48.298;10.008;2024-02-14T15:15:39;2.00;;;1.60;;
35961;SDS011;22044;48.298;10.008;2024-02-14T15:18:25;3.10;;;1.57;;
35961;SDS011;22044;48.298;10.008;2024-02-14T15:21:11;1.97;;;1.23;;
35961;SDS011;22044;48.298;10.008;2024-02-14T15:23:58;1.73;;;1.30;;
35961;SDS011;22044;48.298;10.008;2024-02-14T15:26:44;2.43;;;1.57;;
35961;SDS011;22044;48.298;10.008;2024-02-14T15:29:34;2.43;;;1.40;;
35961;SDS011;22044;48.298;10.008;2024-02-14T15:32:37;3.67;;;2.33;;
35961;SDS011;22044;48.298;10.008;2024-02-14T15:35:40;1.93;;;1.43;;
35961;SDS011;22044;48.298;10.008;2024-02-14T15:38:27;3.80;;;1.40;;
35961;SDS011;22044;48.298;10.008;2024-02-14T15:41:14;3.10;;;1.60;;
35961;SDS011;22044;48.298;10.008;2024-02-14T15:44:03;2.60;;;2.00;;
35961;SDS011;22044;48.298;10.008;2024-02-14T15:46:50;5.23;;;3.30;;
35961;SDS011;22044;48.298;10.008;2024-02-14T15:49:35;3.70;;;3.30;;
35961;SDS011;22044;48.298;10.008;2024-02-14T15:52:22;3.53;;;2.80;;
35961;SDS011;22044;48.298;10.008;2024-02-14T15:55:08;2.07;;;1.87;;
35961;SDS011;22044;48.298;10.008;2024-02-14T15:57:55;2.60;;;2.10;;
35961;SDS011;22044;48.298;10.008;2024-02-14T16:00:41;4.27;;;2.20;;
35961;SDS011;22044;48.298;10.008;2024-02-14T16:03:28;5.53;;;2.60;;
35961;SDS011;22044;48.298;10.008;2024-02-14T16:06:14;2.30;;;2.10;;
35961;SDS011;22044;48.298;10.008;2024-02-14T16:09:00;3.23;;;2.03;;
35961;SDS011;22044;48.298;10.008;2024-02-14T16:11:46;2.57;;;1.90;;
35961;SDS011;22044;48.298;10.008;2024-02-14T16:14:33;2.63;;;1.97;;
35961;SDS011;22044;48.298;10.008;2024-02-14T16:17:21;5.47;;;2.90;;
35961;SDS011;22044;48.298;10.008;2024-02-14T16:20:07;3.23;;;2.50;;
35961;SDS011;22044;48.298;10.008;2024-02-14T16:22:55;2.33;;;1.97;;
35961;SDS011;22044;48.298;10.008;2024-02-14T16:25:41;5.77;;;3.20;;
35961;SDS011;22044;48.298;10.008;2024-02-14T16:28:26;4.53;;;2.50;;
35961;SDS011;22044;48.298;10.008;2024-02-14T16:31:14;4.40;;;2.50;;
35961;SDS011;22044;48.298;10.008;2024-02-14T16:34:00;3.63;;;1.97;;
35961;SDS011;22044;48.298;10.008;2024-02-14T16:36:48;3.27;;;1.67;;
35961;SDS011;22044;48.298;10.008;2024-02-14T16:39:34;2.97;;;1.70;;
35961;SDS011;22044;48.298;10.008;2024-02-14T16:42:20;3.70;;;3.07;;
35961;SDS011;22044;48.298;10.008;2024-02-14T16:45:09;3.33;;;2.87;;